Tiempo atmosférico en la estación meteorológica de Cedrillas, Teruel (1380 m.)



Fecha
DESCASC
Temp. máxima en grados centígrados (hora)
DESCASC
Temp. mínima en grados centígrados (hora)
DESCASC
Temp. media en grados centígrados
DESCASC
Racha de viento máxima en m/sg (hora)
DESCASC
Velocidad máxima media en intervalos de 10 minutos(hora)
DESCASC
Precipitaciones diarias en mm
DESCASC
Precipitaciones de 00:00 a 06:00 en mm
DESCASC
Precipitaciones de 06:00 a 12:00 en mm
DESCASC
Precipitaciones de 12:00 a 18:00 en mm
DESCASC
Precipitaciones de 18:00 a 24:00 en mm
DESCASC
20-09-2018 25.6 (17:50) 8.5 (07:40) 17.1 7.78 (19:30) 5.28 (19:30) 0 0 0 0 0
19-09-2018 23.2 (17:00) 10.4 (05:40) 16.8 6.39 (18:20) 4.72 (19:40) 0 0 0 0 0
18-09-2018 22.9 (17:00) 10.8 (08:10) 16.8 9.17 (18:30) 6.94 (18:30) 12.6 0.6 0 4.4 7.6
17-09-2018 23.2 (13:50) 11.8 (07:50) 17.5 11.11 (17:20) 7.78 (18:20) 22.8 0 0 0 22.8
16-09-2018 24.9 (17:30) 7.3 (00:00) 16.1 7.5 (19:50) 5.28 (20:10) 0 0 0 0 0
15-09-2018 20.8 (14:00) 10.8 (00:00) 15.8 9.17 (15:20) 6.67 (16:00) 0 0 0 0 0
14-09-2018 25.2 (15:50) 9.5 (00:00) 17.4 9.72 (19:00) 6.11 (19:00) 0 0 0 0 0
13-09-2018 24.4 (16:30) 11.5 (00:00) 17.9 8.61 (14:00) 4.72 (13:20) 0 0 0 0 0
12-09-2018 22.3 (16:30) 13.2 (00:00) 17.7 8.61 (13:50) 5.28 (13:50) 0 0 0 0 0
11-09-2018 22.4 (15:20) 9.3 (00:00) 15.8 10 (19:40) 7.22 (19:40) 0.8 0 0 0 0.8
10-09-2018 20.4 (17:50) 11.9 (00:00) 16.1 7.78 (15:50) 5.56 (15:50) 0 0 0 0 0
09-09-2018 22.2 (15:20) 10.1 (00:00) 16.2 10.83 (18:10) 6.67 (18:00) 2.6 0 0 0 2.6
08-09-2018 19.8 (17:10) 9.8 (00:00) 14.8 13.61 (12:30) 8.89 (12:10) 0 0 0 0 0
07-09-2018 21.3 (15:10) 9.2 (00:00) 15.2 8.89 (19:10) 5.83 (17:20) 0.2 0 0.2 0 0
06-09-2018 21 (14:20) 9.2 (00:00) 15.1 7.22 (14:40) 3.89 (00:20) 1.2 0 0 0 1.2
05-09-2018 23.3 (17:10) 14.4 (00:00) 18.8 11.67 (16:40) 7.78 (20:00) 0 0 0 0 0
04-09-2018 24.1 (15:20) 11.8 (00:00) 18 9.17 (18:00) 6.39 (16:00) 0 0 0 0 0
03-09-2018 23.7 (13:10) 12.9 (00:00) 18.3 21.67 (18:50) 10.28 (18:50) 3.2 0 0.2 0.2 2.8
02-09-2018 26.3 (19:20) 12.7 (00:00) 19.5 8.33 (16:40) 5.28 (16:10) 0 0 0 0 0
01-09-2018 24.6 (16:40) 10.4 (00:00) 17.5 7.78 (17:40) 5.28 (17:40) 0 0 0 0 0
31-08-2018 25.5 (14:30) 13.7 (00:00) 19.6 9.44 (16:00) 6.67 (16:00) 21.2 0 0 21.2 0
30-08-2018 23.9 (15:50) 11.7 (00:00) 17.8 9.17 (12:50) 5.83 (12:50) 0 0 0 0 0
29-08-2018 25.1 (13:30) 12.7 (00:00) 18.9 18.06 (00:10) 10 (00:10) 2.6 1.6 0 0 1
28-08-2018 28.2 (15:10) 14.6 (00:00) 21.4 11.67 (15:40) 8.06 (15:50) 3 0 0 0 3
27-08-2018 27.9 (16:10) 10.6 (00:00) 19.3 8.33 (16:40) 4.72 (20:00) 0 0 0 0 0
26-08-2018 26 (18:00) 12 (00:00) 19 8.89 (17:10) 5.83 (20:10) 0 0 0 0 0
25-08-2018 25.7 (17:30) 9.2 (00:00) 17.5 8.89 (18:40) 5.56 (18:40) 0 0 0 0 0
24-08-2018 24.8 (17:20) 9.5 (00:00) 17.1 9.72 (16:10) 5.56 (18:20) 0 0 0 0 0

Gráficas

Temp. máximas Temp. mínimas Temp. medias Precipitaciones Rachas de viento máximas Velocidades máximas media en intervalos de 10 minutos

Datos horarios

Fecha y hora oficial Temperatura (ºC) Velocidad del viento (km/h) Dirección del viento Racha (km/h) Dirección de racha Precipitación (mm) Presión (hPa) Tendencia (hPa) Humedad (%)
2018-09-22 23:00:00 15.2 8 Sudeste 10 Este 0 -- -- 72
2018-09-22 22:00:00 17.1 3 Nordeste 6 Norte 0 -- -- 65
2018-09-22 21:00:00 19.1 5 Norte 13 Norte 0 -- -- 56
2018-09-22 20:00:00 22.1 9 Norte 15 Norte 0 -- -- 43
2018-09-22 19:00:00 25.1 8 Noroeste 23 Noroeste 0 -- -- 35
2018-09-22 18:00:00 25.5 13 Noroeste 28 Oeste 0 -- -- 32
2018-09-22 17:00:00 25.4 14 Noroeste 31 Noroeste 0 -- -- 33
2018-09-22 16:00:00 25.4 17 Noroeste 30 Oeste 0 -- -- 39
2018-09-22 15:00:00 24.9 15 Noroeste 30 Noroeste 0 -- -- 42
2018-09-22 14:00:00 24.6 15 Noroeste 33 Oeste 0 -- -- 40
2018-09-22 13:00:00 23.7 8 Oeste 22 Sudoeste 0 -- -- 44
2018-09-22 12:00:00 22.3 20 Sudoeste 26 Sudoeste 0 -- -- 52
2018-09-22 11:00:00 21 10 Sur 16 Sur 0 -- -- 59
2018-09-22 10:00:00 17.2 9 Sur 14 Sur 0 -- -- 76
2018-09-22 09:00:00 12.7 0 Calma 5 Este 0 -- -- 90
2018-09-22 08:00:00 11.2 0 Calma 10 Sudeste 0 -- -- 93
2018-09-22 07:00:00 11.2 5 Sudeste 8 Este 0 -- -- 93
2018-09-22 06:00:00 11.4 0 Calma 8 Este 0 -- -- 94
2018-09-22 05:00:00 11.9 3 Este 5 Este 0 -- -- 93
2018-09-22 04:00:00 12.5 2 Este 7 Este 0 -- -- 90
2018-09-22 03:00:00 12.9 3 Nordeste 9 Este 0 -- -- 89
2018-09-22 02:00:00 14 5 Este 6 Este 0 -- -- 83
2018-09-22 01:00:00 14.7 0 Calma 10 Nordeste 0 -- -- 81
2018-09-22 00:00:00 15.3 4 Nordeste 10 Este 0 -- -- 84
2018-09-21 23:00:00 15.9 8 Este 13 Este 0 -- -- 82
2018-09-21 22:00:00 17.6 9 Este 11 Este 0 -- -- 72
2018-09-21 21:00:00 19.9 8 Sudoeste 11 Sudoeste 0 -- -- 64
2018-09-21 20:00:00 21.2 5 Oeste 13 Oeste 0 -- -- 49
2018-09-21 19:00:00 24.5 5 Noroeste 13 Noroeste 0 -- -- 37
2018-09-21 18:00:00 25.1 6 Noroeste 15 Noroeste 0 -- -- 35
2018-09-21 17:00:00 24.7 10 Noroeste 19 Noroeste 0 -- -- 35
2018-09-21 16:00:00 25.2 14 Noroeste 21 Oeste 0 -- -- 37
2018-09-21 15:00:00 24.6 13 Oeste 21 Noroeste 0 -- -- 34
2018-09-21 14:00:00 24 12 Noroeste 23 Oeste 0 -- -- 40
2018-09-21 13:00:00 23.3 13 Noroeste 21 Noroeste 0 -- -- 46
2018-09-21 12:00:00 22.3 10 Noroeste 21 Norte 0 -- -- 47
2018-09-21 11:00:00 21 10 Noroeste 26 Noroeste 0 -- -- 50
2018-09-21 10:00:00 16.6 2 Noroeste 10 Este 0 -- -- 82
2018-09-21 09:00:00 13.4 2 Este 6 Este 0 -- -- 90
2018-09-21 08:00:00 11.2 0 Calma 7 Este 0 -- -- 94
2018-09-21 07:00:00 11.2 4 Este 10 Este 0 -- -- 94
2018-09-21 06:00:00 11.9 6 Sudeste 15 Este 0 -- -- 92
2018-09-21 05:00:00 12.8 6 Sudeste 11 Este 0 -- -- 90
2018-09-21 04:00:00 12.9 5 Sudeste 10 Este 0 -- -- 90
2018-09-21 03:00:00 12.9 6 Este 10 Este 0 -- -- 92
2018-09-21 02:00:00 13.8 2 Sudeste 9 Sudeste 0 -- -- 91
2018-09-21 01:00:00 14.8 7 Este 8 Sudeste 0 -- -- 96
2018-09-21 00:00:00 15.9 3 Sudeste 13 Sur 0 -- -- 91
2018-09-20 23:00:00 16.6 8 Sur 14 Sur 0 -- -- 93
2018-09-20 22:00:00 17.2 10 Sur 16 Sur 0 -- -- 91
2018-09-20 21:00:00 17.9 9 Sur 25 Sur 0 -- -- 83
2018-09-20 20:00:00 19.5 18 Sur 28 Sudeste 0 -- -- 72
2018-09-20 19:00:00 22.4 18 Sudeste 27 Sudeste 0 -- -- 60
2018-09-20 18:00:00 25.1 11 Sudoeste 20 Sur 0 -- -- 37
2018-09-20 17:00:00 24.6 8 Nordeste 17 Este 0 -- -- 36
2018-09-20 16:00:00 25.4 6 Sur 16 Este 0 -- -- 39
2018-09-20 15:00:00 24.3 5 Este 18 Norte 0 -- -- 39
2018-09-20 14:00:00 23 9 Norte 21 Norte 0 -- -- 43
2018-09-20 13:00:00 22.4 9 Norte 18 Norte 0 -- -- 44
2018-09-20 12:00:00 21.5 5 Norte 9 Nordeste 0 -- -- 43
2018-09-20 11:00:00 19.2 4 Nordeste 6 Norte 0 -- -- 64
2018-09-20 10:00:00 15.2 0 Calma 4 Este 0 -- -- 84
2018-09-20 09:00:00 10.5 0 Calma 9 Este 0 -- -- 95
2018-09-20 08:00:00 8.5 6 Este 8 Este 0 -- -- 96
2018-09-20 07:00:00 8.8 5 Este 8 Este 0 -- -- 95
2018-09-20 06:00:00 9.3 5 Este 9 Este 0 -- -- 95
2018-09-20 05:00:00 10.2 4 Este 8 Este 0 -- -- 95
2018-09-20 04:00:00 10.7 0 Calma 11 Este 0 -- -- 96
2018-09-20 03:00:00 11.2 8 Este 10 Este 0 -- -- 95
2018-09-20 02:00:00 12.6 6 Sudeste 9 Este 0 -- -- 95
2018-09-20 01:00:00 14.2 6 Sudeste 10 Sudeste 0 -- -- 97
2018-09-20 00:00:00 15 6 Sudeste 9 Sudeste 0 -- -- 95
2018-09-19 23:00:00 15.5 5 Este 8 Sudeste 0 -- -- 93
2018-09-19 22:00:00 16.1 6 Sudeste 14 Sur 0 -- -- 92
2018-09-19 21:00:00 16.9 9 Sur 19 Sur 0 -- -- 91
2018-09-19 20:00:00 18.5 14 Sur 23 Sur 0 -- -- 85
2018-09-19 19:00:00 20.2 17 Sur 23 Norte 0 -- -- 70
2018-09-19 18:00:00 22.4 7 Norte 17 Nordeste 0 -- -- 46
2018-09-19 17:00:00 23.2 9 Norte 19 Norte 0 -- -- 44
2018-09-19 16:00:00 22.5 8 Norte 19 Noroeste 0 -- -- 45
2018-09-19 15:00:00 22.9 9 Norte 21 Norte 0 -- -- 44
2018-09-19 14:00:00 22.3 9 Norte 15 Noroeste 0 -- -- 49
2018-09-19 13:00:00 21 7 Norte 20 Norte 0 -- -- 54
2018-09-19 12:00:00 19.9 8 Nordeste 15 Norte 0 -- -- 64
2018-09-19 11:00:00 18.4 9 Norte 14 Norte 0 -- -- 71
2018-09-19 10:00:00 16 5 Nordeste 10 Este 0 -- -- 88
2018-09-19 09:00:00 13.1 6 Este 11 Este 0 -- -- 95
2018-09-19 08:00:00 10.7 3 Nordeste 9 Nordeste 0 -- -- 97
2018-09-19 07:00:00 10.8 5 Nordeste 10 Nordeste 0 -- -- 98
2018-09-19 06:00:00 10.5 3 Nordeste 9 Este 0 -- -- 98
2018-09-19 05:00:00 10.8 6 Este 12 Este 0 -- -- 97
2018-09-19 04:00:00 11.4 3 Nordeste 6 Este 0 -- -- 95
2018-09-19 03:00:00 12.3 3 Nordeste 6 Noroeste 0 -- -- 94
2018-09-19 02:00:00 12.7 4 Norte 8 Norte 0 -- -- 94
2018-09-19 01:00:00 13.2 6 Norte 12 Norte 0 -- -- 94
2018-09-19 00:00:00 13.9 7 Norte 17 Este 0 -- -- 92
2018-09-18 23:00:00 13.8 12 Este 29 Oeste 0.8 -- -- 90
2018-09-18 22:00:00 14 11 Oeste 30 Oeste 1.8 -- -- 89
2018-09-18 21:00:00 14.9 10 Sudoeste 20 Sur 0.4 -- -- 95
2018-09-18 20:00:00 15.6 11 Sudoeste 17 Sur 3.8 -- -- 92
2018-09-18 19:00:00 16.4 10 Este 33 Este 0.8 -- -- 80
2018-09-18 18:00:00 18.1 18 Este 32 Sur 0 -- -- 74
2018-09-18 17:00:00 22.9 7 Oeste 21 Oeste 0 -- -- 45
2018-09-18 16:00:00 22.3 9 Noroeste 18 Noroeste 0 -- -- 49
2018-09-18 15:00:00 20.8 6 Nordeste 15 Este 0 -- -- 69
2018-09-18 14:00:00 18.8 12 Este 18 Este 0 -- -- 79
2018-09-18 13:00:00 16.3 7 Este 24 Sur 4.4 -- -- 89
2018-09-18 12:00:00 19.4 4 Este 10 Nordeste 0 -- -- 67
2018-09-18 11:00:00 17.2 4 Nordeste 8 Nordeste 0 -- -- 80
2018-09-18 10:00:00 14.9 5 Este 8 Este 0 -- -- 90
2018-09-18 09:00:00 12.9 0 Calma 5 Nordeste 0 -- -- 96
2018-09-18 08:00:00 10.9 2 Nordeste 9 Sudoeste 0 -- -- 96
2018-09-18 07:00:00 11.2 8 Sudeste 10 Este 0 -- -- 95
2018-09-18 06:00:00 11.3 0 Calma 9 Sudeste 0 -- -- 95
2018-09-18 05:00:00 11.5 5 Sur 8 Sudeste 0 -- -- 94
2018-09-18 04:00:00 12 4 Sur 11 Sudeste 0 -- -- 94
2018-09-18 03:00:00 12.2 3 Este 10 Sudeste 0 -- -- 96
2018-09-18 02:00:00 12.7 6 Sudeste 10 Sudeste 0 -- -- 93
2018-09-18 01:00:00 12.7 3 Oeste 16 Este 0.6 -- -- 94
2018-09-18 00:00:00 12.6 6 Este 12 Este 5.8 -- -- 96
2018-09-17 23:00:00 12.8 2 Oeste 32 Sudoeste 2.8 -- -- 94
2018-09-17 22:00:00 12.8 5 Nordeste 19 Norte 14.2 -- -- 94
2018-09-17 21:00:00 14.9 14 Nordeste 31 Norte 0 -- -- 74
2018-09-17 20:00:00 17.3 13 Sur 32 Sudeste 0 -- -- 82
2018-09-17 19:00:00 19 24 Sur 37 Sudeste 0 -- -- 74
2018-09-17 18:00:00 20.3 26 Sudeste 40 Sur 0 -- -- 66
2018-09-17 17:00:00 20.8 23 Sudeste 36 Sur 0 -- -- 59
2018-09-17 16:00:00 21.4 26 Sur 39 Sur 0 -- -- 56
2018-09-17 15:00:00 22.8 20 Sur 31 Sudeste 0 -- -- 53
2018-09-17 14:00:00 23.1 13 Sur 24 Sur 0 -- -- 43
2018-09-17 13:00:00 22.1 15 Sur 24 Sur 0 -- -- 57
2018-09-17 12:00:00 21.9 10 Sur 17 Sur 0 -- -- 55
2018-09-17 11:00:00 19.9 6 Sur 13 Sudeste 0 -- -- 59
2018-09-17 10:00:00 16.2 3 Oeste 5 Oeste 0 -- -- 82
2018-09-17 09:00:00 13.6 0 Calma 8 Este 0 -- -- 90
2018-09-17 08:00:00 11.8 3 Este 4 Este 0 -- -- 95
2018-09-17 07:00:00 12.4 3 Nordeste 7 Este 0 -- -- 93
2018-09-17 06:00:00 13.5 4 Este 9 Sudeste 0 -- -- 92
2018-09-17 05:00:00 14.8 2 Sudoeste 10 Sur 0 -- -- 96
2018-09-17 04:00:00 15.3 7 Sudeste 17 Sudeste 0 -- -- 92
2018-09-17 03:00:00 15.6 10 Sur 24 Sudeste 0 -- -- 91
2018-09-17 02:00:00 15.6 12 Sur 22 Sur 0 -- -- 94
2018-09-17 01:00:00 15.7 5 Sur 13 Sur 0 -- -- 94
2018-09-17 00:00:00 16.2 4 Sur 9 Sur 0 -- -- 93
2018-09-16 23:00:00 16.3 4 Sur 14 Sur 0 -- -- 93
2018-09-16 22:00:00 16.4 8 Sur 18 Sur 0 -- -- 93
2018-09-16 21:00:00 17.1 13 Sur 27 Sur 0 -- -- 89
2018-09-16 20:00:00 19.3 17 Sur 27 Sur 0 -- -- 76
2018-09-16 19:00:00 23 15 Sur 21 Sur 0 -- -- 54
2018-09-16 18:00:00 22.9 7 Nordeste 17 Norte 0 -- -- 36
2018-09-16 17:00:00 24.2 7 Norte 17 Noroeste 0 -- -- 34
2018-09-16 16:00:00 24 7 Nordeste 20 Nordeste 0 -- -- 34
2018-09-16 15:00:00 23.4 9 Este 23 Nordeste 0 -- -- 36
2018-09-16 14:00:00 22.4 12 Nordeste 21 Este 0 -- -- 41
2018-09-16 13:00:00 21.4 11 Nordeste 19 Nordeste 0 -- -- 42
2018-09-16 12:00:00 20.1 8 Norte 16 Norte 0 -- -- 46
2018-09-16 11:00:00 18.7 5 Norte 13 Norte 0 -- -- 58
2018-09-16 10:00:00 15.4 4 Norte 8 Noroeste 0 -- -- 75
2018-09-16 09:00:00 11.1 6 Este 9 Nordeste 0 -- -- 91
2018-09-16 08:00:00 7.8 7 Sudeste 10 Este 0 -- -- 96
2018-09-16 07:00:00 7.9 5 Sudeste 8 Sudeste 0 -- -- 95
2018-09-16 06:00:00 7.3 4 Nordeste 10 Sudeste 0 -- -- 96
2018-09-16 05:00:00 7.4 6 Este 8 Este 0 -- -- 94
2018-09-16 04:00:00 8.6 5 Este 7 Sudeste 0 -- -- 93
2018-09-16 03:00:00 7.8 3 Oeste 10 Este 0 -- -- 94
2018-09-16 02:00:00 8.8 10 Este 13 Este 0 -- -- 93
2018-09-16 01:00:00 9.8 8 Sudeste 11 Este 0 -- -- 91
2018-09-16 00:00:00 10.8 3 Sudeste 13 Este 0 -- -- 92
2018-09-15 23:00:00 12.7 4 Sur 8 Sudeste 0 -- -- 95
2018-09-15 22:00:00 13.2 4 Sudoeste 13 Sur 0 -- -- 95
2018-09-15 21:00:00 13.9 9 Sur 16 Sur 0 -- -- 93
2018-09-15 20:00:00 15.1 9 Sur 20 Sudeste 0 -- -- 88
2018-09-15 19:00:00 16.5 12 Sur 24 Sur 0 -- -- 83
2018-09-15 18:00:00 16.5 16 Sur 26 Sur 0 -- -- 81
2018-09-15 17:00:00 16.7 19 Sur 32 Sur 0 -- -- 82
2018-09-15 16:00:00 18.2 24 Sur 33 Sur 0 -- -- 76
2018-09-15 15:00:00 19.6 19 Sur 28 Sur 0 -- -- 68
2018-09-15 14:00:00 20.8 10 Sur 18 Sur 0 -- -- 60
2018-09-15 13:00:00 19 8 Oeste 13 Oeste 0 -- -- 65
2018-09-15 12:00:00 17.8 4 Oeste 12 Sudoeste 0 -- -- 70
2018-09-15 11:00:00 16.4 2 Norte 8 Noroeste 0 -- -- 82
2018-09-15 10:00:00 14.1 4 Norte 6 Norte 0 -- -- 96
2018-09-15 09:00:00 12.6 3 Nordeste 4 Este 0 -- -- 97
2018-09-15 08:00:00 12.4 3 Nordeste 5 Este 0 -- -- 97
2018-09-15 07:00:00 12.9 4 Sudeste 7 Sudeste 0 -- -- 97
2018-09-15 06:00:00 12.6 0 Calma 4 Este 0 -- -- 96
2018-09-15 05:00:00 12.9 5 Nordeste 7 Nordeste 0 -- -- 96
2018-09-15 04:00:00 13.2 3 Nordeste 8 Nordeste 0 -- -- 97
2018-09-15 03:00:00 14.2 3 Este 9 Sudeste 0 -- -- 95
2018-09-15 02:00:00 14.9 4 Sudeste 8 Este 0 -- -- 94
2018-09-15 01:00:00 14.9 0 Calma 8 Este 0 -- -- 93
2018-09-15 00:00:00 15.7 3 Sudeste 12 Sur 0 -- -- 91
2018-09-14 23:00:00 16.1 8 Sur 15 Sur 0 -- -- 93
2018-09-14 22:00:00 16.6 8 Sur 20 Sur 0 -- -- 91
2018-09-14 21:00:00 17.5 15 Sur 24 Sur 0 -- -- 86
2018-09-14 20:00:00 19.4 11 Sudeste 31 Sur 0 -- -- 73
2018-09-14 19:00:00 22.2 22 Sur 35 Sur 0 -- -- 60
2018-09-14 18:00:00 24.4 17 Sur 24 Sur 0 -- -- 46
2018-09-14 17:00:00 24.1 14 Sudeste 25 Sur 0 -- -- 46
2018-09-14 16:00:00 24.7 12 Sur 23 Sudoeste 0 -- -- 45
2018-09-14 15:00:00 25.1 12 Sur 23 Sur 0 -- -- 43
2018-09-14 14:00:00 24.2 12 Sur 21 Sur 0 -- -- 47
2018-09-14 13:00:00 22.8 6 Sudeste 17 Sudeste 0 -- -- 49
2018-09-14 12:00:00 21.8 8 Sur 15 Sur 0 -- -- 58
2018-09-14 11:00:00 19.7 7 Sur 15 Sur 0 -- -- 71
2018-09-14 10:00:00 15.3 0 Calma 4 Oeste 0 -- -- 91
2018-09-14 09:00:00 12.3 4 Este 8 Este 0 -- -- 95
2018-09-14 08:00:00 10 7 Sudeste 12 Sudeste 0 -- -- 99
2018-09-14 07:00:00 9.7 3 Este 6 Este 0 -- -- 94
2018-09-14 06:00:00 9.9 0 Calma 6 Este 0 -- -- 95
2018-09-14 05:00:00 10 5 Este 8 Este 0 -- -- 95
2018-09-14 04:00:00 10.8 4 Este 7 Este 0 -- -- 94
2018-09-14 03:00:00 11.5 0 Calma 5 Este 0 -- -- 93
2018-09-14 02:00:00 12.3 5 Este 10 Este 0 -- -- 93
2018-09-14 01:00:00 12.9 10 Sudeste 15 Este 0 -- -- 94
2018-09-14 00:00:00 14.6 3 Sur 10 Sur 0 -- -- 88
2018-09-13 23:00:00 15 0 Calma 12 Sur 0 -- -- 85
2018-09-13 22:00:00 16.7 10 Sur 13 Sur 0 -- -- 86
2018-09-13 21:00:00 18.3 5 Sudoeste 9 Nordeste 0 -- -- 73
2018-09-13 20:00:00 20.7 8 Nordeste 20 Nordeste 0 -- -- 50
2018-09-13 19:00:00 22.3 13 Nordeste 23 Nordeste 0 -- -- 47
2018-09-13 18:00:00 23.8 12 Norte 22 Norte 0 -- -- 43
2018-09-13 17:00:00 23.9 10 Norte 26 Noroeste 0 -- -- 41
2018-09-13 16:00:00 24.2 10 Norte 20 Norte 0 -- -- 39
2018-09-13 15:00:00 23.2 11 Norte 26 Norte 0 -- -- 41
2018-09-13 14:00:00 22.5 15 Norte 31 Norte 0 -- -- 41
2018-09-13 13:00:00 21.5 10 Nordeste 22 Norte 0 -- -- 42
2018-09-13 12:00:00 20.4 9 Norte 19 Norte 0 -- -- 44
2018-09-13 11:00:00 19.3 11 Norte 19 Norte 0 -- -- 48
2018-09-13 10:00:00 17.5 11 Norte 19 Norte 0 -- -- 67
2018-09-13 09:00:00 15 6 Norte 11 Norte 0 -- -- 75
2018-09-13 08:00:00 12.4 6 Este 14 Norte 0 -- -- 82
2018-09-13 07:00:00 11.5 6 Nordeste 12 Nordeste 0 -- -- 84
2018-09-13 06:00:00 12.4 8 Norte 12 Nordeste 0 -- -- 81
2018-09-13 05:00:00 12.2 8 Nordeste 11 Nordeste 0 -- -- 81
2018-09-13 04:00:00 13.3 9 Nordeste 19 Nordeste 0 -- -- 76
2018-09-13 03:00:00 12.5 6 Este 12 Este 0 -- -- 81
2018-09-13 02:00:00 12.1 8 Este 10 Sudeste 0 -- -- 85
2018-09-13 01:00:00 12.9 6 Este 10 Este 0 -- -- 84
2018-09-13 00:00:00 14.5 6 Este 9 Este 0 -- -- 79
2018-09-12 23:00:00 16.1 2 Este 13 Sur 0 -- -- 71
2018-09-12 22:00:00 17 7 Sur 13 Sur 0 -- -- 66
2018-09-12 21:00:00 17.7 3 Norte 21 Norte 0 -- -- 58
2018-09-12 20:00:00 19.8 12 Norte 26 Noroeste 0 -- -- 50
2018-09-12 19:00:00 21.8 15 Norte 29 Noroeste 0 -- -- 46
2018-09-12 18:00:00 22.1 15 Noroeste 26 Noroeste 0 -- -- 44
2018-09-12 17:00:00 22.2 18 Noroeste 30 Noroeste 0 -- -- 42
2018-09-12 16:00:00 21.7 13 Noroeste 23 Oeste 0 -- -- 50
2018-09-12 15:00:00 20.3 9 Oeste 29 Noroeste 0 -- -- 53
2018-09-12 14:00:00 20.6 15 Noroeste 31 Noroeste 0 -- -- 52
2018-09-12 13:00:00 20.4 15 Noroeste 26 Noroeste 0 -- -- 51
2018-09-12 12:00:00 19.4 7 Sudoeste 17 Sur 0 -- -- 63
2018-09-12 11:00:00 17 9 Sur 13 Sur 0 -- -- 72
2018-09-12 10:00:00 16.1 4 Oeste 15 Este 0 -- -- 79
2018-09-12 09:00:00 14.9 13 Este 17 Este 0 -- -- 88
2018-09-12 08:00:00 13.6 8 Noroeste 22 Noroeste 0 -- -- 95
2018-09-12 07:00:00 13.7 8 Sur 12 Sudoeste 0 -- -- 95
2018-09-12 06:00:00 14.1 8 Sur 18 Sudeste 0 -- -- 93
2018-09-12 05:00:00 13.3 7 Sur 14 Sur 0 -- -- 97
2018-09-12 04:00:00 13.4 7 Sudeste 13 Sur 0 -- -- 96
2018-09-12 03:00:00 13.5 7 Sudeste 17 Sudeste 0 -- -- 96
2018-09-12 02:00:00 13.2 9 Sudeste 14 Sur 0 -- -- 96
2018-09-12 01:00:00 13.6 3 Sudoeste 10 Sur 0 -- -- 96
2018-09-12 00:00:00 13.9 5 Sudoeste 8 Sudoeste 0 -- -- 94
2018-09-11 23:00:00 14.4 4 Sudoeste 8 Sur 0 -- -- 94
2018-09-11 22:00:00 15 7 Sur 19 Sudeste 0 -- -- 93
2018-09-11 21:00:00 14.7 13 Sur 25 Sur 0 -- -- 94
2018-09-11 20:00:00 16 14 Sur 36 Sudeste 0.8 -- -- 81
2018-09-11 19:00:00 20.1 12 Sur 26 Sur 0 -- -- 63
2018-09-11 18:00:00 20.5 19 Sur 32 Sur 0 -- -- 59
2018-09-11 17:00:00 20.8 19 Sudeste 30 Sudeste 0 -- -- 56
2018-09-11 16:00:00 21.9 18 Sur 30 Sur 0 -- -- 55
2018-09-11 15:00:00 21.7 14 Sur 26 Sur 0 -- -- 57
2018-09-11 14:00:00 19.6 5 Este 19 Sudeste 0 -- -- 60
2018-09-11 13:00:00 19.1 11 Sur 18 Sur 0 -- -- 70
2018-09-11 12:00:00 17.6 10 Sur 25 Nordeste 0 -- -- 74
2018-09-11 11:00:00 17.3 19 Nordeste 26 Nordeste 0 -- -- 68
2018-09-11 10:00:00 16.7 12 Nordeste 15 Nordeste 0 -- -- 75
2018-09-11 09:00:00 11.5 4 Nordeste 7 Este 0 -- -- 92
2018-09-11 08:00:00 9.5 0 Calma 7 Sudeste 0 -- -- 96
2018-09-11 07:00:00 9.4 3 Este 5 Este 0 -- -- 95
2018-09-11 06:00:00 9.7 3 Sudeste 7 Este 0 -- -- 92
2018-09-11 05:00:00 10.4 2 Sudeste 7 Este 0 -- -- 91
2018-09-11 04:00:00 9.9 3 Este 11 Este 0 -- -- 95
2018-09-11 03:00:00 10.4 4 Sudeste 11 Este 0 -- -- 95
2018-09-11 02:00:00 11 5 Este 10 Sudeste 0 -- -- 94
2018-09-11 01:00:00 11.9 5 Este 12 Este 0 -- -- 94
2018-09-11 00:00:00 13.4 8 Este 11 Este 0 -- -- 91
2018-09-10 23:00:00 14.6 5 Sur 10 Sudoeste 0 -- -- 95
2018-09-10 22:00:00 14.7 8 Sur 13 Sur 0 -- -- 95
2018-09-10 21:00:00 15.3 9 Sur 17 Sudoeste 0 -- -- 92
2018-09-10 20:00:00 16.3 8 Sudoeste 19 Sur 0 -- -- 82
2018-09-10 19:00:00 17.5 9 Sur 18 Sur 0 -- -- 77
2018-09-10 18:00:00 20.1 15 Sur 24 Sur 0 -- -- 68
2018-09-10 17:00:00 18.4 10 Sur 25 Sur 0 -- -- 69
2018-09-10 16:00:00 17.4 20 Sur 28 Sur 0 -- -- 73
2018-09-10 15:00:00 19.9 13 Nordeste 26 Este 0 -- -- 57
2018-09-10 14:00:00 19.3 13 Norte 22 Nordeste 0 -- -- 62
2018-09-10 13:00:00 18 10 Norte 23 Nordeste 0 -- -- 69
2018-09-10 12:00:00 16 13 Norte 19 Norte 0 -- -- 83
2018-09-10 11:00:00 14.6 10 Norte 17 Norte 0 -- -- 92
2018-09-10 10:00:00 13.7 6 Norte 21 Nordeste 0 -- -- 97
2018-09-10 09:00:00 13.4 13 Nordeste 21 Nordeste 0 -- -- 97
2018-09-10 08:00:00 13 11 Norte 19 Nordeste 0 -- -- 96
2018-09-10 07:00:00 12.7 6 Norte 10 Norte 0 -- -- 95
2018-09-10 06:00:00 12.2 8 Nordeste 16 Norte 0 -- -- 95
2018-09-10 05:00:00 12.1 10 Norte 17 Norte 0 -- -- 93
2018-09-10 04:00:00 12.8 4 Oeste 8 Nordeste 0 -- -- 92
2018-09-10 03:00:00 12.9 6 Norte 9 Norte 0 -- -- 94
2018-09-10 02:00:00 12.8 2 Nordeste 8 Nordeste 0 -- -- 93
2018-09-10 01:00:00 13.1 5 Norte 16 Norte 0 -- -- 90
2018-09-10 00:00:00 13.3 6 Nordeste 19 Nordeste 0 -- -- 86
2018-09-09 23:00:00 13.3 10 Nordeste 22 Sur 0.4 -- -- 90
2018-09-09 22:00:00 13.3 9 Sur 35 Sudeste 1.4 -- -- 87
2018-09-09 21:00:00 13.7 14 Este 21 Sudeste 0.8 -- -- 89
2018-09-09 20:00:00 15.1 5 Noroeste 28 Norte 0 -- -- 71
2018-09-09 19:00:00 17.6 8 Sudeste 39 Sudeste 0 -- -- 80
2018-09-09 18:00:00 18.8 24 Sur 37 Sur 0 -- -- 75
2018-09-09 17:00:00 20.2 16 Sur 27 Sudeste 0 -- -- 69
2018-09-09 16:00:00 20.4 21 Sur 31 Sur 0 -- -- 64
2018-09-09 15:00:00 22 14 Sur 24 Sudeste 0 -- -- 49
2018-09-09 14:00:00 21.7 12 Sur 22 Sur 0 -- -- 47
2018-09-09 13:00:00 20.3 5 Norte 12 Oeste 0 -- -- 54
2018-09-09 12:00:00 19 5 Norte 11 Oeste 0 -- -- 54
2018-09-09 11:00:00 17.8 6 Nordeste 11 Nordeste 0 -- -- 61
2018-09-09 10:00:00 14 4 Norte 10 Norte 0 -- -- 88
2018-09-09 09:00:00 11.3 0 Calma 10 Sudeste 0 -- -- 93
2018-09-09 08:00:00 10.2 3 Nordeste 9 Este 0 -- -- 95
2018-09-09 07:00:00 10.8 9 Este 13 Sudeste 0 -- -- 95
2018-09-09 06:00:00 12.8 0 Calma 8 Sudeste 0 -- -- 96
2018-09-09 05:00:00 12.8 6 Sur 11 Sur 0 -- -- 99
2018-09-09 04:00:00 13.1 2 Sudoeste 7 Sudeste 0 -- -- 94
2018-09-09 03:00:00 13.9 2 Sudeste 8 Sudeste 0 -- -- 94
2018-09-09 02:00:00 14.1 3 Este 6 Este 0 -- -- 92
2018-09-09 01:00:00 14.1 3 Sur 13 Sudeste 0 -- -- 93
2018-09-09 00:00:00 14.7 5 Sur 22 Sudeste 0 -- -- 92
2018-09-08 23:00:00 14.9 9 Sudeste 19 Sudeste 0 -- -- 91
2018-09-08 22:00:00 15.3 8 Sur 17 Sudoeste 0 -- -- 92
2018-09-08 21:00:00 15.8 10 Sur 25 Sur 0 -- -- 89
2018-09-08 20:00:00 17.1 13 Sur 24 Sur 0 -- -- 76
2018-09-08 19:00:00 18.1 9 Sur 18 Sudeste 0 -- -- 69
2018-09-08 18:00:00 18.2 14 Sudeste 31 Sudeste 0 -- -- 68
2018-09-08 17:00:00 19.5 17 Sudeste 28 Sudeste 0 -- -- 67
2018-09-08 16:00:00 18.5 16 Sur 30 Sur 0 -- -- 69
2018-09-08 15:00:00 19 17 Sur 30 Sudeste 0 -- -- 69
2018-09-08 14:00:00 17.4 22 Sudeste 39 Sudeste 0 -- -- 74
2018-09-08 13:00:00 16.5 27 Sur 49 Sur 0 -- -- 79
2018-09-08 12:00:00 16.9 28 Sur 44 Sur 0 -- -- 74
2018-09-08 11:00:00 15.2 13 Sudeste 32 Sudeste 0 -- -- 85
2018-09-08 10:00:00 14.3 14 Sudeste 22 Sudeste 0 -- -- 91
2018-09-08 09:00:00 12.9 3 Sudeste 7 Sur 0 -- -- 97
2018-09-08 08:00:00 9.9 2 Este 6 Este 0 -- -- 96
2018-09-08 07:00:00 10.8 3 Sudeste 10 Sudeste 0 -- -- 91
2018-09-08 06:00:00 11.1 2 Oeste 9 Sudeste 0 -- -- 94
2018-09-08 05:00:00 11.7 6 Sudeste 10 Sudeste 0 -- -- 92
2018-09-08 04:00:00 12.2 6 Sudeste 8 Sudeste 0 -- -- 90
2018-09-08 03:00:00 12.3 4 Sudeste 9 Sur 0 -- -- 94
2018-09-08 02:00:00 12 5 Este 10 Este 0 -- -- 94
2018-09-08 01:00:00 13.3 2 Sudeste 14 Sudeste 0 -- -- 93
2018-09-08 00:00:00 13.9 8 Sudeste 26 Sur 0 -- -- 95
2018-09-07 23:00:00 14.1 19 Sur 27 Sur 0 -- -- 95
2018-09-07 22:00:00 14.6 8 Sudeste 13 Sur 0 -- -- 90
2018-09-07 21:00:00 15.5 9 Sudeste 24 Sudeste 0 -- -- 87
2018-09-07 20:00:00 15.4 16 Sudeste 32 Sudeste 0 -- -- 90
2018-09-07 19:00:00 17.6 18 Sudeste 27 Sudeste 0 -- -- 79
2018-09-07 18:00:00 18.1 16 Sur 31 Sur 0 -- -- 69
2018-09-07 17:00:00 21.1 18 Sur 29 Sudoeste 0 -- -- 53
2018-09-07 16:00:00 20.4 21 Sur 31 Sudeste 0 -- -- 56
2018-09-07 15:00:00 21 16 Sur 25 Sur 0 -- -- 56
2018-09-07 14:00:00 20.3 17 Sur 29 Sudeste 0 -- -- 61
2018-09-07 13:00:00 19.6 18 Sur 29 Sudeste 0 -- -- 61
2018-09-07 12:00:00 19.2 9 Sur 19 Sur 0.2 -- -- 62
2018-09-07 11:00:00 16.6 4 Norte 7 Nordeste 0 -- -- 73
2018-09-07 10:00:00 13.6 3 Norte 8 Este 0 -- -- 79
2018-09-07 09:00:00 12 6 Este 8 Este 0 -- -- 89
2018-09-07 08:00:00 10.2 5 Este 8 Este 0 -- -- 94
2018-09-07 07:00:00 10.1 5 Este 6 Este 0 -- -- 94
2018-09-07 06:00:00 9.7 4 Este 8 Este 0 -- -- 95
2018-09-07 05:00:00 9.3 5 Este 7 Este 0 -- -- 92
2018-09-07 04:00:00 10 3 Nordeste 7 Norte 0 -- -- 92
2018-09-07 03:00:00 10.8 5 Norte 12 Norte 0 -- -- 90
2018-09-07 02:00:00 12 6 Norte 13 Norte 0 -- -- 86
2018-09-07 01:00:00 12.9 8 Norte 13 Nordeste 0 -- -- 89
2018-09-07 00:00:00 12.9 4 Nordeste 10 Nordeste 0 -- -- 90
2018-09-06 23:00:00 12.8 6 Nordeste 10 Norte 0 -- -- 89
2018-09-06 22:00:00 13.7 6 Este 12 Este 0 -- -- 88
2018-09-06 21:00:00 14 3 Norte 8 Este 0 -- -- 87
2018-09-06 20:00:00 14.3 5 Nordeste 14 Este 0 -- -- 86
2018-09-06 19:00:00 15.1 10 Este 18 Este 1.2 -- -- 84
2018-09-06 18:00:00 16.8 5 Norte 22 Nordeste 0 -- -- 74
2018-09-06 17:00:00 18.7 8 Norte 19 Nordeste 0 -- -- 61
2018-09-06 16:00:00 19.1 12 Norte 23 Norte 0 -- -- 61
2018-09-06 15:00:00 20.4 11 Oeste 26 Oeste 0 -- -- 43
2018-09-06 14:00:00 19.6 5 Sur 18 Sudoeste 0 -- -- 51
2018-09-06 13:00:00 18.8 5 Sudeste 10 Nordeste 0 -- -- 63
2018-09-06 12:00:00 17 3 Norte 12 Norte 0 -- -- 75
2018-09-06 11:00:00 13.7 6 Norte 11 Nordeste 0 -- -- 94
2018-09-06 10:00:00 12.1 5 Nordeste 10 Nordeste 0 -- -- 100
2018-09-06 09:00:00 11 6 Norte 10 Nordeste 0 -- -- 100
2018-09-06 08:00:00 9.5 4 Este 10 Norte 0 -- -- 99
2018-09-06 07:00:00 9.8 5 Este 11 Este 0 -- -- 98
2018-09-06 06:00:00 10.3 6 Este 13 Este 0 -- -- 95
2018-09-06 05:00:00 11.5 8 Este 11 Sudeste 0 -- -- 93
2018-09-06 04:00:00 13.5 3 Sudeste 7 Este 0 -- -- 95
2018-09-06 03:00:00 14.2 8 Sur 17 Sur 0 -- -- 97
2018-09-06 02:00:00 14.8 12 Sur 15 Sur 0 -- -- 96
2018-09-06 01:00:00 15.1 11 Sur 21 Sur 0 -- -- 95
2018-09-06 00:00:00 15.4 13 Sur 16 Sur 0 -- -- 92
2018-09-05 23:00:00 16.1 13 Sur 21 Sur 0 -- -- 92
2018-09-05 22:00:00 16.9 9 Sur 21 Sudoeste 0 -- -- 76
2018-09-05 21:00:00 18.7 18 Sudoeste 35 Sudoeste 0 -- -- 40
2018-09-05 20:00:00 20.7 28 Sudoeste 39 Sudoeste 0 -- -- 31
2018-09-05 19:00:00 22 24 Sudoeste 37 Sudoeste 0 -- -- 42
2018-09-05 18:00:00 22.2 21 Sudoeste 35 Sudoeste 0 -- -- 43
2018-09-05 17:00:00 23.1 22 Sudoeste 42 Sur 0 -- -- 41
2018-09-05 16:00:00 21.7 12 Sur 27 Este 0 -- -- 54
2018-09-05 15:00:00 20.2 14 Sur 31 Sur 0 -- -- 67
2018-09-05 14:00:00 20.7 17 Sur 29 Sur 0 -- -- 66
2018-09-05 13:00:00 20.9 16 Sur 28 Sur 0 -- -- 60
2018-09-05 12:00:00 19.9 15 Sudeste 23 Sur 0 -- -- 67
2018-09-05 11:00:00 18.5 11 Sur 21 Sur 0 -- -- 73
2018-09-05 10:00:00 16.6 12 Sur 19 Sur 0 -- -- 86
2018-09-05 09:00:00 15.1 9 Sur 15 Sur 0 -- -- 96
2018-09-05 08:00:00 14.6 6 Sur 9 Sudoeste 0 -- -- 99
2018-09-05 07:00:00 14.7 6 Sudeste 20 Sudoeste 0 -- -- 96
2018-09-05 06:00:00 14.9 12 Sur 18 Sur 0 -- -- 98
2018-09-05 05:00:00 15 10 Sur 16 Sur 0 -- -- 95
2018-09-05 04:00:00 15.5 10 Sur 18 Sur 0 -- -- 95
2018-09-05 03:00:00 15.9 18 Sur 25 Sudeste 0 -- -- 93
2018-09-05 02:00:00 16 16 Sur 27 Sur 0 -- -- 93
2018-09-05 01:00:00 16 13 Sudeste 29 Sur 0 -- -- 93
2018-09-05 00:00:00 16.2 18 Sur 26 Sudeste 0 -- -- 92
2018-09-04 23:00:00 16.6 12 Sur 26 Sur 0 -- -- 91
2018-09-04 22:00:00 17 17 Sur 26 Sudeste 0 -- -- 89
2018-09-04 21:00:00 18.1 17 Sudeste 29 Sur 0 -- -- 84
2018-09-04 20:00:00 19.5 19 Sur 31 Sur 0 -- -- 67
2018-09-04 19:00:00 21.4 21 Sudeste 31 Sur 0 -- -- 62
2018-09-04 18:00:00 23.1 22 Sur 33 Sur 0 -- -- 50
2018-09-04 17:00:00 22.7 20 Sur 31 Sudeste 0 -- -- 50
2018-09-04 16:00:00 23.4 23 Sudeste 30 Sur 0 -- -- 48
2018-09-04 15:00:00 23.9 14 Sur 24 Sudeste 0 -- -- 44
2018-09-04 14:00:00 23.3 13 Sur 19 Sur 0 -- -- 48
2018-09-04 13:00:00 22.5 12 Sur 21 Sur 0 -- -- 51
2018-09-04 12:00:00 21.1 14 Sur 24 Sur 0 -- -- 55
2018-09-04 11:00:00 19.9 12 Sur 16 Sur 0 -- -- 59
2018-09-04 10:00:00 17.1 8 Sudoeste 13 Sudoeste 0 -- -- 68
2018-09-04 09:00:00 13.9 0 Calma 9 Este 0 -- -- 82
2018-09-04 08:00:00 12.1 2 Sudeste 9 Sur 0 -- -- 84
2018-09-04 07:00:00 12.2 9 Sur 10 Sur 0 -- -- 83
2018-09-04 06:00:00 12.1 0 Calma 7 Sudoeste 0 -- -- 86
2018-09-04 05:00:00 12.7 6 Sudeste 12 Sudeste 0 -- -- 83
2018-09-04 04:00:00 13.7 8 Sur 15 Sur 0 -- -- 80
2018-09-04 03:00:00 13.9 6 Sudoeste 15 Sur 0 -- -- 73
2018-09-04 02:00:00 13.9 9 Sur 17 Sur 0 -- -- 70
2018-09-04 01:00:00 14.1 12 Sur 18 Sur 0 -- -- 69
2018-09-04 00:00:00 13.1 11 Sudoeste 19 Sudoeste 0 -- -- 81
2018-09-03 23:00:00 13.1 15 Sur 28 Sur 0 -- -- 87
2018-09-03 22:00:00 13.4 13 Sur 42 Sur 0 -- -- 84
2018-09-03 21:00:00 13.1 22 Sur 44 Sudeste 0 -- -- 88
2018-09-03 20:00:00 13.7 27 Este 54 Sur 1.4 -- -- 82
2018-09-03 19:00:00 15.2 28 Sur 78 Sur 1.4 -- -- 76
2018-09-03 18:00:00 20.9 23 Sur 35 Sur 0 -- -- 67
2018-09-03 17:00:00 22.6 10 Sudeste 33 Sudeste 0 -- -- 51
2018-09-03 16:00:00 22.6 15 Sudeste 30 Sur 0 -- -- 56
2018-09-03 15:00:00 21.8 7 Este 28 Sur 0 -- -- 61
2018-09-03 14:00:00 19.7 17 Sudeste 42 Sur 0.2 -- -- 82
2018-09-03 13:00:00 23.4 7 Sur 17 Sur 0 -- -- 50
2018-09-03 12:00:00 22.2 13 Sur 20 Sur 0 -- -- 63
2018-09-03 11:00:00 20.9 13 Sudoeste 19 Sur 0 -- -- 63
2018-09-03 10:00:00 17.7 5 Oeste 13 Este 0.2 -- -- 87
2018-09-03 09:00:00 15.2 10 Este 14 Este 0 -- -- 85
2018-09-03 08:00:00 13.7 5 Este 6 Este 0 -- -- 92
2018-09-03 07:00:00 13.9 6 Nordeste 14 Nordeste 0 -- -- 92
2018-09-03 06:00:00 14.6 2 Nordeste 9 Sudeste 0 -- -- 94
2018-09-03 05:00:00 15.5 6 Este 10 Sudeste 0 -- -- 93
2018-09-03 04:00:00 17.1 3 Noroeste 17 Sur 0 -- -- 94
2018-09-03 03:00:00 17.3 11 Sur 18 Sur 0 -- -- 95
2018-09-03 02:00:00 17.8 7 Sur 10 Sur 0 -- -- 94
2018-09-03 01:00:00 18.3 4 Este 12 Sur 0 -- -- 95
2018-09-03 00:00:00 18.4 11 Sur 16 Sur 0 -- -- 95
2018-09-02 23:00:00 18.8 9 Sur 19 Sur 0 -- -- 94
2018-09-02 22:00:00 19.3 7 Sur 18 Sur 0 -- -- 89
2018-09-02 21:00:00 20.6 8 Sur 15 Sur 0 -- -- 80
2018-09-02 20:00:00 23.7 7 Sur 19 Sudeste 0 -- -- 68
2018-09-02 19:00:00 26 5 Este 13 Nordeste 0 -- -- 41
2018-09-02 18:00:00 24.7 5 Nordeste 14 Este 0 -- -- 49
2018-09-02 17:00:00 22.5 3 Norte 30 Noroeste 0 -- -- 56
2018-09-02 16:00:00 24 16 Sur 26 Sur 0 -- -- 61
2018-09-02 15:00:00 24.8 17 Sur 26 Sudeste 0 -- -- 59
2018-09-02 14:00:00 25.5 17 Sur 26 Sur 0 -- -- 57
2018-09-02 13:00:00 24.2 17 Sur 22 Sur 0 -- -- 61
2018-09-02 12:00:00 23 14 Sur 22 Sur 0 -- -- 63
2018-09-02 11:00:00 22 10 Sur 17 Sur 0 -- -- 63
2018-09-02 10:00:00 19.5 5 Sur 9 Este 0 -- -- 76
2018-09-02 09:00:00 15.8 5 Este 9 Sudeste 0 -- -- 94
2018-09-02 08:00:00 13.3 6 Sudeste 8 Este 0 -- -- 97
2018-09-02 07:00:00 13.1 4 Este 8 Este 0 -- -- 97
2018-09-02 06:00:00 13.4 2 Sudeste 5 Sudeste 0 -- -- 96
2018-09-02 05:00:00 13.6 0 Calma 2 Este 0 -- -- 96
2018-09-02 04:00:00 13.8 0 Calma 4 Este 0 -- -- 94
2018-09-02 03:00:00 14.3 0 Calma 2 Sur 0 -- -- 92
2018-09-02 02:00:00 14.4 0 Calma 13 Sur 0 -- -- 93
2018-09-02 01:00:00 14.9 9 Sur 13 Sur 0 -- -- 92
2018-09-02 00:00:00 15.4 3 Sudeste 6 Oeste 0 -- -- 88
2018-09-01 23:00:00 16.2 3 Oeste 14 Sur 0 -- -- 85
2018-09-01 22:00:00 17.1 11 Sur 15 Sur 0 -- -- 81
2018-09-01 21:00:00 18.3 6 Sudoeste 19 Sur 0 -- -- 78
2018-09-01 20:00:00 20.5 15 Sur 26 Sur 0 -- -- 73
2018-09-01 19:00:00 22.7 18 Sur 27 Sur 0 -- -- 67
2018-09-01 18:00:00 24.5 16 Sur 28 Sur 0 -- -- 61
2018-09-01 17:00:00 23.6 16 Sur 26 Sudoeste 0 -- -- 62
2018-09-01 16:00:00 23.6 6 Sudoeste 19 Sudoeste 0 -- -- 58
2018-09-01 15:00:00 23.3 10 Sudeste 20 Sur 0 -- -- 62
2018-09-01 14:00:00 22.8 12 Sur 23 Sudoeste 0 -- -- 64
2018-09-01 13:00:00 21.5 7 Sudoeste 17 Sudoeste 0 -- -- 67
2018-09-01 12:00:00 20.9 7 Sur 15 Sudeste 0 -- -- 71
2018-09-01 11:00:00 19.2 4 Sur 9 Sur 0 -- -- 76
2018-09-01 10:00:00 16.7 3 Norte 6 Nordeste 0 -- -- 88
2018-09-01 09:00:00 12.6 0 Calma 4 Oeste 0 -- -- 95
2018-09-01 08:00:00 10.8 3 Nordeste 8 Este 0 -- -- 99
2018-09-01 07:00:00 10.8 0 Calma 6 Este 0 -- -- 97
2018-09-01 06:00:00 11 3 Este 7 Este 0 -- -- 96
2018-09-01 05:00:00 11.3 4 Este 6 Este 0 -- -- 97
2018-09-01 04:00:00 11.6 2 Nordeste 6 Sudeste 0 -- -- 96
2018-09-01 03:00:00 12.5 0 Calma 9 Este 0 -- -- 95
2018-09-01 02:00:00 12.5 4 Este 7 Nordeste 0 -- -- 95
2018-09-01 01:00:00 13 7 Este 10 Este 0 -- -- 95
2018-09-01 00:00:00 13.7 5 Este 6 Este 0 -- -- 95
2018-08-31 23:00:00 14.2 3 Sur 8 Este 0 -- -- 95
2018-08-31 22:00:00 14.9 9 Sudeste 12 Este 0 -- -- 93
2018-08-31 21:00:00 16.3 3 Nordeste 4 Nordeste 0 -- -- 91
2018-08-31 20:00:00 17.1 4 Nordeste 20 Sur 0 -- -- 90
2018-08-31 19:00:00 17.2 6 Sur 20 Este 0 -- -- 88
2018-08-31 18:00:00 17.2 13 Este 26 Este 0 -- -- 90
2018-08-31 17:00:00 16.3 20 Este 33 Este 21.2 -- -- 93
2018-08-31 16:00:00 20.6 24 Sur 34 Sur 0 -- -- 69
2018-08-31 15:00:00 23.7 17 Oeste 24 Oeste 0 -- -- 49
2018-08-31 14:00:00 25 12 Sudoeste 24 Sudoeste 0 -- -- 45
2018-08-31 13:00:00 23.4 6 Oeste 19 Sur 0 -- -- 52
2018-08-31 12:00:00 23 10 Sur 19 Sur 0 -- -- 60
2018-08-31 11:00:00 21.3 9 Sudoeste 14 Sur 0 -- -- 70
2018-08-31 10:00:00 18.9 3 Sur 11 Sur 0 -- -- 81
2018-08-31 09:00:00 16.9 6 Sur 11 Sur 0 -- -- 91
2018-08-31 08:00:00 16.1 3 Sudeste 6 Sudoeste 0 -- -- 95
2018-08-31 07:00:00 16 2 Noroeste 13 Sudoeste 0 -- -- 95
2018-08-31 06:00:00 16 4 Sur 8 Sudeste 0 -- -- 98
2018-08-31 05:00:00 15.7 5 Sudeste 8 Sudeste 0 -- -- 99
2018-08-31 04:00:00 15.1 7 Sudoeste 11 Sudoeste 0 -- -- 99
2018-08-31 03:00:00 14.3 9 Sudeste 10 Sudeste 0 -- -- 95
2018-08-31 02:00:00 15.7 4 Sudeste 6 Sudeste 0 -- -- 92
2018-08-31 01:00:00 16.7 2 Norte 5 Este 0 -- -- 92
2018-08-31 00:00:00 17.2 0 Calma 18 Sur 0 -- -- 95
2018-08-30 23:00:00 17.2 8 Sur 18 Sur 0 -- -- 94
2018-08-30 22:00:00 17.3 12 Sudeste 17 Sudeste 0 -- -- 93
2018-08-30 21:00:00 17.9 12 Sur 17 Sudeste 0 -- -- 90
2018-08-30 20:00:00 19.1 12 Sudeste 23 Sur 0 -- -- 85
2018-08-30 19:00:00 19.7 14 Sur 22 Sur 0 -- -- 82
2018-08-30 18:00:00 20.3 12 Sur 24 Sur 0 -- -- 75
2018-08-30 17:00:00 21.3 13 Sur 21 Sudoeste 0 -- -- 64
2018-08-30 16:00:00 23.4 15 Sur 27 Sur 0 -- -- 55
2018-08-30 15:00:00 22.7 15 Sur 30 Sur 0 -- -- 60
2018-08-30 14:00:00 21.8 17 Sur 29 Sur 0 -- -- 63
2018-08-30 13:00:00 20.9 18 Sur 33 Sur 0 -- -- 67
2018-08-30 12:00:00 20.3 19 Sur 27 Sur 0 -- -- 69
2018-08-30 11:00:00 19.1 16 Sur 23 Sur 0 -- -- 66
2018-08-30 10:00:00 16.2 5 Sur 13 Sudeste 0 -- -- 82
2018-08-30 09:00:00 13.1 0 Calma 5 Nordeste 0 -- -- 93
2018-08-30 08:00:00 11.8 0 Calma 8 Nordeste 0 -- -- 98
2018-08-30 07:00:00 13 5 Nordeste 8 Este 0 -- -- 98
2018-08-30 06:00:00 13.6 4 Nordeste 6 Nordeste 0 -- -- 97
2018-08-30 05:00:00 13.4 5 Sudoeste 12 Sur 0 -- -- 95
2018-08-30 04:00:00 13.6 3 Norte 6 Norte 0 -- -- 92
2018-08-30 03:00:00 13.8 2 Este 6 Este 0 -- -- 92
2018-08-30 02:00:00 14.3 2 Norte 8 Este 0 -- -- 91
2018-08-30 01:00:00 14.2 3 Este 8 Este 0 -- -- 91
2018-08-30 00:00:00 15.1 0 Calma 4 Sudeste 0 -- -- 87
2018-08-29 23:00:00 15.1 3 Este 6 Sudeste 0 -- -- 88
2018-08-29 22:00:00 15.2 8 Este 11 Este 0 -- -- 87
2018-08-29 21:00:00 15.7 5 Este 13 Este 0 -- -- 85
2018-08-29 20:00:00 16.5 6 Oeste 20 Sur 1 -- -- 83
2018-08-29 19:00:00 16.8 16 Sur 31 Este 0 -- -- 79
2018-08-29 18:00:00 20.7 22 Este 38 Este 0 -- -- 52
2018-08-29 17:00:00 19.3 22 Este 42 Nordeste 0 -- -- 65
2018-08-29 16:00:00 22.2 18 Este 37 Este 0 -- -- 56
2018-08-29 15:00:00 24 9 Oeste 13 Oeste 0 -- -- 44
2018-08-29 14:00:00 23.5 7 Oeste 15 Noroeste 0 -- -- 47
2018-08-29 13:00:00 24.4 6 Noroeste 13 Noroeste 0 -- -- 44
2018-08-29 12:00:00 23.2 5 Oeste 14 Sur 0 -- -- 45
2018-08-29 11:00:00 22.3 6 Sur 11 Sur 0 -- -- 50
2018-08-29 10:00:00 19.2 0 Calma 4 Norte 0 -- -- 59
2018-08-29 09:00:00 15.4 0 Calma 3 Nordeste 0 -- -- 78
2018-08-29 08:00:00 12.7 2 Norte 12 Este 0 -- -- 81
2018-08-29 07:00:00 13.8 3 Este 10 Sur 0 -- -- 75
2018-08-29 06:00:00 15 9 Sur 16 Sur 0 -- -- 68
2018-08-29 05:00:00 15.2 13 Sur 15 Sur 0 -- -- 70
2018-08-29 04:00:00 14.3 14 Sur 22 Sur 0 -- -- 76
2018-08-29 03:00:00 13.5 15 Sur 18 Sur 0 -- -- 80
2018-08-29 02:00:00 14 10 Este 36 Este 0.2 -- -- 75
2018-08-29 01:00:00 13.8 14 Este 65 Noroeste 1.4 -- -- 79
2018-08-29 00:00:00 18.2 17 Oeste 41 Noroeste 0 -- -- 61
2018-08-28 23:00:00 18.6 22 Sudeste 35 Sudeste 0 -- -- 59
2018-08-28 22:00:00 17.8 12 Este 26 Este 0 -- -- 76
2018-08-28 21:00:00 19.5 25 Sudoeste 38 Sudoeste 0 -- -- 67
2018-08-28 20:00:00 19.1 17 Sur 38 Sur 3 -- -- 71
2018-08-28 19:00:00 21.3 14 Sur 30 Sudeste 0 -- -- 64
2018-08-28 18:00:00 23.1 21 Sudeste 37 Sudeste 0 -- -- 49
2018-08-28 17:00:00 24.3 8 Sur 33 Sur 0 -- -- 55
2018-08-28 16:00:00 22.6 28 Sur 42 Sudeste 0 -- -- 70
2018-08-28 15:00:00 27.5 6 Sudoeste 22 Sudoeste 0 -- -- 38
2018-08-28 14:00:00 26.4 14 Sudoeste 22 Oeste 0 -- -- 38
2018-08-28 13:00:00 26.6 15 Sudoeste 23 Oeste 0 -- -- 35
2018-08-28 12:00:00 25.3 16 Sudoeste 26 Sudoeste 0 -- -- 38
2018-08-28 11:00:00 24.6 14 Sudoeste 23 Sudoeste 0 -- -- 48
2018-08-28 10:00:00 20.8 9 Sur 13 Sur 0 -- -- 63
2018-08-28 09:00:00 16.9 0 Calma 14 Sur 0 -- -- 94
2018-08-28 08:00:00 16 8 Sudoeste 21 Sur 0 -- -- 97
2018-08-28 07:00:00 15.5 12 Sur 17 Sur 0 -- -- 99
2018-08-28 06:00:00 15 6 Sudoeste 9 Sur 0 -- -- 96
2018-08-28 05:00:00 15.4 3 Sudeste 14 Sudoeste 0 -- -- 97
2018-08-28 04:00:00 16.6 9 Sur 16 Sudoeste 0 -- -- 97
2018-08-28 03:00:00 17.3 7 Sur 21 Sur 0 -- -- 95
2018-08-28 02:00:00 17.7 9 Sur 17 Sur 0 -- -- 95
2018-08-28 01:00:00 18.1 9 Sur 21 Sur 0 -- -- 97
2018-08-28 00:00:00 18.4 10 Sur 15 Sudoeste 0 -- -- 96
2018-08-27 23:00:00 19 9 Sur 20 Sur 0 -- -- 93
2018-08-27 22:00:00 19.5 12 Sur 21 Sur 0 -- -- 88
2018-08-27 21:00:00 21 17 Sur 23 Sur 0 -- -- 80
2018-08-27 20:00:00 23.8 17 Sur 23 Sur 0 -- -- 65
2018-08-27 19:00:00 26.4 16 Sur 27 Sur 0 -- -- 53
2018-08-27 18:00:00 27.1 15 Sur 25 Sur 0 -- -- 45
2018-08-27 17:00:00 27 17 Sur 30 Sudeste 0 -- -- 43
2018-08-27 16:00:00 27.7 9 Sudeste 23 Sur 0 -- -- 34
2018-08-27 15:00:00 27 10 Sudeste 22 Sur 0 -- -- 34
2018-08-27 14:00:00 26.2 8 Sur 21 Sur 0 -- -- 35
2018-08-27 13:00:00 25.4 12 Sur 21 Sur 0 -- -- 38
2018-08-27 12:00:00 24.6 10 Sur 20 Sudoeste 0 -- -- 43
2018-08-27 11:00:00 22.5 14 Sur 18 Sur 0 -- -- 51
2018-08-27 10:00:00 17.2 4 Oeste 6 Sudoeste 0 -- -- 78
2018-08-27 09:00:00 14.3 4 Este 6 Este 0 -- -- 81
2018-08-27 08:00:00 11 0 Calma 4 Nordeste 0 -- -- 90
2018-08-27 07:00:00 10.8 0 Calma 6 Este 0 -- -- 90
2018-08-27 06:00:00 10.7 5 Este 8 Este 0 -- -- 90
2018-08-27 05:00:00 11.1 6 Este 8 Este 0 -- -- 89
2018-08-27 04:00:00 11.8 3 Este 8 Sudeste 0 -- -- 87
2018-08-27 03:00:00 12.5 5 Este 7 Este 0 -- -- 87
2018-08-27 02:00:00 13.4 6 Sudeste 10 Este 0 -- -- 92
2018-08-27 01:00:00 14.9 3 Sur 8 Este 0 -- -- 91
2018-08-27 00:00:00 15.8 3 Oeste 16 Sur 0 -- -- 92
2018-08-26 23:00:00 16.5 9 Sur 21 Sur 0 -- -- 89
2018-08-26 22:00:00 17.6 10 Sur 25 Sur 0 -- -- 83
2018-08-26 21:00:00 19 21 Sur 30 Sur 0 -- -- 76
2018-08-26 20:00:00 22.9 17 Sur 23 Sur 0 -- -- 59
2018-08-26 19:00:00 25.4 14 Oeste 27 Oeste 0 -- -- 36
2018-08-26 18:00:00 26 14 Oeste 32 Oeste 0 -- -- 35
2018-08-26 17:00:00 25.6 18 Oeste 30 Oeste 0 -- -- 38
2018-08-26 16:00:00 24.8 15 Noroeste 30 Oeste 0 -- -- 43
2018-08-26 15:00:00 24.2 13 Sudoeste 28 Oeste 0 -- -- 45
2018-08-26 14:00:00 22.8 13 Sudoeste 25 Sudoeste 0 -- -- 45
2018-08-26 13:00:00 21.6 14 Sudoeste 24 Sudoeste 0 -- -- 49
2018-08-26 12:00:00 19.9 15 Sudoeste 28 Sudoeste 0 -- -- 63
2018-08-26 11:00:00 18.5 16 Sudoeste 28 Sudoeste 0 -- -- 70
2018-08-26 10:00:00 16.5 13 Sur 21 Sur 0 -- -- 78
2018-08-26 09:00:00 14.3 9 Sur 14 Sur 0 -- -- 87
2018-08-26 08:00:00 13.1 12 Sur 21 Sur 0 -- -- 94
2018-08-26 07:00:00 13.4 11 Sur 19 Sur 0 -- -- 94
2018-08-26 06:00:00 13.5 6 Sur 17 Sur 0 -- -- 93
2018-08-26 05:00:00 14.1 9 Sur 22 Sur 0 -- -- 93
2018-08-26 04:00:00 13.4 9 Sur 14 Sur 0 -- -- 95
2018-08-26 03:00:00 12.1 0 Calma 6 Nordeste 0 -- -- 77
2018-08-26 02:00:00 12.6 3 Norte 10 Norte 0 -- -- 74
2018-08-26 01:00:00 13.2 7 Norte 18 Norte 0 -- -- 71
2018-08-26 00:00:00 14.6 4 Norte 14 Norte 0 -- -- 67
2018-08-25 23:00:00 14.8 5 Noroeste 11 Nordeste 0 -- -- 65
2018-08-25 22:00:00 15.8 4 Norte 13 Norte 0 -- -- 62
2018-08-25 21:00:00 18.1 7 Norte 19 Norte 0 -- -- 53
2018-08-25 20:00:00 20.8 10 Norte 23 Norte 0 -- -- 46
2018-08-25 19:00:00 22.2 15 Norte 32 Norte 0 -- -- 44
2018-08-25 18:00:00 25.1 15 Oeste 30 Oeste 0 -- -- 27
2018-08-25 17:00:00 25.3 12 Noroeste 28 Oeste 0 -- -- 29
2018-08-25 16:00:00 24.9 12 Oeste 26 Sudoeste 0 -- -- 32
2018-08-25 15:00:00 23.8 13 Oeste 28 Oeste 0 -- -- 33
2018-08-25 14:00:00 22.7 9 Noroeste 24 Oeste 0 -- -- 33
2018-08-25 13:00:00 21.6 13 Noroeste 28 Norte 0 -- -- 39
2018-08-25 12:00:00 21 11 Noroeste 21 Oeste 0 -- -- 42
2018-08-25 11:00:00 19.5 3 Sudoeste 6 Oeste 0 -- -- 47
2018-08-25 10:00:00 15.4 0 Calma 4 Oeste 0 -- -- 80
2018-08-25 09:00:00 12.2 0 Calma 4 Nordeste 0 -- -- 87
2018-08-25 08:00:00 9.6 0 Calma 10 Este 0 -- -- 95
2018-08-25 07:00:00 9.7 7 Sudeste 10 Sudeste 0 -- -- 94
2018-08-25 06:00:00 10.4 6 Este 10 Este 0 -- -- 93
2018-08-25 05:00:00 10.8 2 Norte 9 Este 0 -- -- 92
2018-08-25 04:00:00 11.6 2 Norte 4 Nordeste 0 -- -- 88
2018-08-25 03:00:00 12.1 2 Nordeste 6 Sudeste 0 -- -- 89
2018-08-25 02:00:00 12.9 4 Este 6 Nordeste 0 -- -- 87
2018-08-25 01:00:00 13.6 5 Nordeste 8 Nordeste 0 -- -- 83
2018-08-25 00:00:00 14.7 3 Norte 8 Norte 0 -- -- 78
2018-08-24 23:00:00 15.5 3 Norte 12 Norte 0 -- -- 75
2018-08-24 22:00:00 16.9 7 Norte 13 Norte 0 -- -- 69
2018-08-24 21:00:00 19 7 Norte 18 Norte 0 -- -- 60
2018-08-24 20:00:00 21.9 9 Norte 28 Noroeste 0 -- -- 47
2018-08-24 19:00:00 24.1 16 Noroeste 29 Noroeste 0 -- -- 33
2018-08-24 18:00:00 24.6 19 Noroeste 31 Noroeste 0 -- -- 37
2018-08-24 17:00:00 24.5 17 Noroeste 35 Noroeste 0 -- -- 39
2018-08-24 16:00:00 24.3 18 Noroeste 28 Noroeste 0 -- -- 38
2018-08-24 15:00:00 23.8 14 Noroeste 29 Noroeste 0 -- -- 45
2018-08-24 14:00:00 22.9 17 Noroeste 29 Noroeste 0 -- -- 48
2018-08-24 13:00:00 22.5 12 Norte 18 Norte 0 -- -- 48
2018-08-24 12:00:00 21.4 9 Noroeste 18 Oeste 0 -- -- 45
2018-08-24 11:00:00 20.9 5 Norte 13 Nordeste 0 -- -- 58
2018-08-24 10:00:00 18 6 Nordeste 12 Nordeste 0 -- -- 68
2018-08-24 09:00:00 14.2 8 Este 11 Este 0 -- -- 88
2018-08-24 08:00:00 10.4 8 Este 11 Este 0 -- -- 97
2018-08-24 07:00:00 9.9 8 Este 11 Este 0 -- -- 95
2018-08-24 06:00:00 9.9 4 Este 10 Sudeste 0 -- -- 92
2018-08-24 05:00:00 10.4 7 Este 9 Este 0 -- -- 89
2018-08-24 04:00:00 10.4 6 Este 10 Este 0 -- -- 86
2018-08-24 03:00:00 11.2 8 Este 10 Este 0 -- -- 86
2018-08-24 02:00:00 12.2 4 Nordeste 7 Nordeste 0 -- -- 85
2018-08-24 01:00:00 12.4 3 Norte 12 Este 0 -- -- 86
2018-08-24 00:00:00 14 2 Noroeste 14 Este 0 -- -- 80